createdAt,value
2018-10-21T00:00:38.647Z,27.80
2018-10-21T00:03:07.555Z,27.03
2018-10-21T00:05:36.555Z,27.60
2018-10-21T00:08:05.426Z,29.37
2018-10-21T00:10:34.106Z,27.67
2018-10-21T00:13:02.883Z,27.77
2018-10-21T00:15:31.521Z,28.83
2018-10-21T00:18:00.029Z,27.70
2018-10-21T00:20:28.682Z,27.57
2018-10-21T00:22:57.512Z,27.50
2018-10-21T00:25:26.656Z,27.40
2018-10-21T00:27:55.341Z,27.60
2018-10-21T00:30:24.113Z,26.13
2018-10-21T00:32:52.839Z,25.33
2018-10-21T00:35:21.462Z,25.80
2018-10-21T00:37:50.499Z,23.83
2018-10-21T00:40:19.321Z,25.17
2018-10-21T00:42:47.911Z,25.30
2018-10-21T00:45:17.400Z,25.23
2018-10-21T00:47:45.826Z,24.20
2018-10-21T00:50:15.198Z,23.93
2018-10-21T00:52:43.845Z,24.60
2018-10-21T00:55:12.605Z,25.10
2018-10-21T00:57:42.133Z,25.73
2018-10-21T01:00:12.681Z,24.63
2018-10-21T01:03:43.924Z,24.07
2018-10-21T01:06:12.489Z,26.10
2018-10-21T01:15:24.442Z,24.17
2018-10-21T01:17:53.189Z,21.30
2018-10-21T01:20:21.861Z,18.80
2018-10-21T01:22:50.585Z,18.97
2018-10-21T01:25:19.339Z,21.57
2018-10-21T01:27:48.129Z,21.10
2018-10-21T01:30:16.905Z,19.43
2018-10-21T01:32:45.509Z,18.27
2018-10-21T01:35:14.208Z,18.30
2018-10-21T01:37:42.730Z,18.77
2018-10-21T01:40:29.790Z,17.80
2018-10-21T01:42:58.551Z,19.10
2018-10-21T01:45:27.359Z,19.43
2018-10-21T01:47:57.411Z,20.90
2018-10-21T01:50:26.442Z,20.20
2018-10-21T01:52:56.178Z,18.37
2018-10-21T01:55:25.216Z,19.37
2018-10-21T01:57:54.273Z,18.20
2018-10-21T02:00:23.142Z,18.60
2018-10-21T02:02:51.941Z,17.53
2018-10-21T02:05:20.790Z,19.17
2018-10-21T02:07:49.678Z,19.97
2018-10-21T02:10:18.225Z,18.67
2018-10-21T02:12:46.853Z,17.40
2018-10-21T02:15:15.613Z,19.40
2018-10-21T02:17:44.396Z,20.27
2018-10-21T02:20:13.772Z,21.10
2018-10-21T02:22:43.260Z,20.03
2018-10-21T02:25:12.120Z,19.77
2018-10-21T02:27:41.601Z,19.97
2018-10-21T02:30:13.588Z,20.57
2018-10-21T02:32:42.866Z,20.87
2018-10-21T02:35:12.090Z,20.33
2018-10-21T02:37:41.053Z,20.47
2018-10-21T02:41:40.883Z,21.50
2018-10-21T02:44:10.802Z,22.10
2018-10-21T02:46:40.181Z,22.17
2018-10-21T02:49:09.558Z,19.63
2018-10-21T02:51:38.762Z,21.77
2018-10-21T02:54:07.717Z,19.63
2018-10-21T02:56:36.524Z,21.27
2018-10-21T02:59:08.004Z,21.17
2018-10-21T03:01:36.711Z,21.33
2018-10-21T03:04:05.466Z,21.13
2018-10-21T03:06:34.270Z,19.50
2018-10-21T03:09:03.035Z,20.47
2018-10-21T03:11:32.531Z,19.50
2018-10-21T03:14:01.236Z,21.20
2018-10-21T03:16:29.900Z,21.23
2018-10-21T03:18:58.635Z,21.60
2018-10-21T03:21:27.337Z,19.80
2018-10-21T03:23:56.008Z,18.90
2018-10-21T03:26:24.690Z,19.07
2018-10-21T03:28:53.375Z,21.13
2018-10-21T03:31:22.748Z,21.93
2018-10-21T03:33:51.521Z,20.47
2018-10-21T03:36:20.228Z,22.00
2018-10-21T03:38:48.875Z,22.33
2018-10-21T03:41:17.469Z,21.63
2018-10-21T03:43:45.989Z,22.33
2018-10-21T03:46:15.600Z,24.20
2018-10-21T03:48:44.608Z,22.17
2018-10-21T03:51:13.781Z,20.80
2018-10-21T03:53:42.642Z,20.67
2018-10-21T03:56:11.572Z,22.90
2018-10-21T03:58:40.679Z,21.30
2018-10-21T04:01:09.620Z,21.33
2018-10-21T04:03:38.774Z,23.27
2018-10-21T04:06:08.727Z,21.97
2018-10-21T04:08:37.251Z,20.50
2018-10-21T04:11:06.163Z,21.17
2018-10-21T04:13:34.954Z,22.17
2018-10-21T04:16:03.449Z,20.60
2018-10-21T04:18:32.167Z,19.77
2018-10-21T04:21:00.927Z,20.57
2018-10-21T04:23:29.653Z,20.83
2018-10-21T04:25:58.231Z,21.43
2018-10-21T04:28:26.915Z,22.10
2018-10-21T04:30:55.606Z,20.77
2018-10-21T04:33:55.090Z,20.73
2018-10-21T04:36:25.295Z,21.93
2018-10-21T04:40:11.561Z,20.97
2018-10-21T04:42:40.979Z,22.30
2018-10-21T04:45:10.801Z,21.77
2018-10-21T04:47:39.372Z,21.13
2018-10-21T04:50:09.258Z,20.93
2018-10-21T04:52:37.946Z,23.13
2018-10-21T04:55:12.246Z,22.23
2018-10-21T04:57:41.954Z,21.27
2018-10-21T05:00:15.842Z,21.60
2018-10-21T05:02:45.237Z,20.17
2018-10-21T05:05:14.912Z,21.30
2018-10-21T05:07:44.293Z,21.77
2018-10-21T05:10:35.079Z,21.60
2018-10-21T05:13:04.454Z,21.17
2018-10-21T05:15:34.251Z,20.30
2018-10-21T05:18:02.946Z,21.77
2018-10-21T05:20:31.566Z,22.40
2018-10-21T05:23:00.262Z,23.23
2018-10-21T05:25:28.996Z,22.50
2018-10-21T05:27:57.574Z,20.97
2018-10-21T05:30:26.264Z,22.00
2018-10-21T05:32:54.989Z,22.40
2018-10-21T05:35:24.148Z,21.10
2018-10-21T05:37:52.720Z,21.90
2018-10-21T05:40:22.321Z,22.47
2018-10-21T05:42:51.254Z,21.87
2018-10-21T05:45:19.893Z,21.87
2018-10-21T05:47:48.633Z,22.23
2018-10-21T05:50:17.681Z,22.40
2018-10-21T05:52:46.488Z,22.90
2018-10-21T05:55:16.377Z,22.53
2018-10-21T05:57:45.424Z,22.03
2018-10-21T06:00:19.555Z,22.67
2018-10-21T06:02:48.872Z,24.83
2018-10-21T06:05:48.251Z,24.30
2018-10-21T06:08:18.042Z,25.67
2018-10-21T06:10:51.508Z,24.97
2018-10-21T06:13:25.488Z,23.87
2018-10-21T06:15:55.645Z,25.03
2018-10-21T06:18:28.021Z,22.90
2018-10-21T06:21:05.047Z,23.93
2018-10-21T06:23:35.011Z,23.43
2018-10-21T06:26:07.795Z,25.50
2018-10-21T06:28:38.165Z,25.47
2018-10-21T06:31:09.088Z,25.13
2018-10-21T06:33:43.222Z,26.43
2018-10-21T06:36:13.873Z,26.30
2018-10-21T06:38:45.787Z,28.10
2018-10-21T06:41:15.373Z,27.03
2018-10-21T06:43:44.947Z,25.83
2018-10-21T06:46:14.629Z,26.83
2018-10-21T06:48:46.793Z,27.23
2018-10-21T06:51:18.091Z,25.70
2018-10-21T06:53:52.797Z,24.77
2018-10-21T06:56:24.817Z,26.40
2018-10-21T06:58:55.295Z,24.13
2018-10-21T07:01:25.274Z,24.73
2018-10-21T07:03:56.291Z,26.60
2018-10-21T07:06:27.235Z,27.97
2018-10-21T07:09:01.708Z,28.67
2018-10-21T07:11:32.413Z,28.67
2018-10-21T07:14:05.928Z,28.63
2018-10-21T07:16:36.688Z,30.40
2018-10-21T07:19:05.698Z,29.60
2018-10-21T07:21:34.787Z,29.23
2018-10-21T07:24:06.976Z,27.07
2018-10-21T07:26:38.749Z,26.03
2018-10-21T07:29:09.591Z,24.80
2018-10-21T07:31:43.348Z,27.23
2018-10-21T07:34:15.613Z,25.70
2018-10-21T07:36:45.511Z,24.57
2018-10-21T07:39:17.019Z,24.60
2018-10-21T07:41:45.816Z,25.37
2018-10-21T07:44:14.836Z,27.90
2018-10-21T07:46:45.220Z,27.53
2018-10-21T07:49:18.884Z,25.80
2018-10-21T07:51:52.091Z,24.50
2018-10-21T07:54:26.915Z,28.97
2018-10-21T07:56:57.652Z,28.13
2018-10-21T07:59:32.020Z,27.50
2018-10-21T08:02:02.470Z,28.30
2018-10-21T08:04:36.913Z,27.67
2018-10-21T08:07:23.604Z,28.30
2018-10-21T08:09:52.522Z,28.77
2018-10-21T08:12:21.814Z,30.67
2018-10-21T08:14:53.335Z,30.10
2018-10-21T08:17:26.239Z,30.00
2018-10-21T08:19:57.745Z,28.77
2018-10-21T08:22:27.754Z,27.57
2018-10-21T08:25:00.305Z,24.73
2018-10-21T08:27:31.689Z,26.83
2018-10-21T08:30:00.300Z,28.07
2018-10-21T08:32:31.819Z,27.20
2018-10-21T08:35:05.628Z,27.57
2018-10-21T08:37:39.691Z,25.73
2018-10-21T08:40:08.875Z,25.83
2018-10-21T08:42:38.255Z,25.93
2018-10-21T08:46:38.638Z,26.07
2018-10-21T08:49:13.208Z,26.30
2018-10-21T08:51:42.153Z,27.33
2018-10-21T08:54:16.120Z,26.03
2018-10-21T08:56:56.865Z,27.10
2018-10-21T08:59:29.439Z,26.97
2018-10-21T09:02:01.882Z,26.67
2018-10-21T09:04:33.926Z,26.23
2018-10-21T09:07:04.375Z,27.40
2018-10-21T09:09:39.190Z,26.20
2018-10-21T09:12:09.515Z,26.33
2018-10-21T09:14:38.138Z,26.47
2018-10-21T09:17:11.150Z,26.00
2018-10-21T09:19:39.966Z,27.00
2018-10-21T09:22:09.748Z,25.00
2018-10-21T09:24:38.490Z,29.03
2018-10-21T09:27:09.648Z,29.43
2018-10-21T09:29:39.264Z,28.57
2018-10-21T09:32:10.778Z,29.00
2018-10-21T09:34:39.698Z,26.93
2018-10-21T09:37:16.706Z,25.23
2018-10-21T09:39:53.109Z,25.60
2018-10-21T09:42:24.979Z,26.87
2018-10-21T09:44:54.307Z,28.20
2018-10-21T09:47:23.116Z,28.77
2018-10-21T09:49:56.970Z,27.47
2018-10-21T09:52:26.394Z,26.10
2018-10-21T09:55:01.135Z,26.60
2018-10-21T09:57:33.699Z,26.37
2018-10-21T10:00:07.835Z,27.70
2018-10-21T10:02:41.829Z,26.23
2018-10-21T10:05:14.528Z,25.53
2018-10-21T10:07:43.935Z,24.40
2018-10-21T10:10:12.911Z,23.80
2018-10-21T10:12:46.357Z,22.20
2018-10-21T10:15:15.710Z,24.90
2018-10-21T10:17:44.750Z,24.73
2018-10-21T10:20:15.310Z,22.80
2018-10-21T10:22:48.033Z,24.87
2018-10-21T10:25:17.425Z,22.60
2018-10-21T10:27:46.610Z,22.93
2018-10-21T10:30:19.532Z,23.77
2018-10-21T10:32:51.610Z,24.03
2018-10-21T10:35:20.704Z,23.93
2018-10-21T10:37:50.095Z,23.63
2018-10-21T10:40:21.315Z,24.70
2018-10-21T10:42:59.737Z,24.53
2018-10-21T10:45:30.347Z,23.07
2018-10-21T10:48:05.163Z,25.57
2018-10-21T10:50:36.816Z,24.53
2018-10-21T10:53:13.992Z,25.03
2018-10-21T10:55:46.430Z,24.63
2018-10-21T10:58:20.684Z,24.50
2018-10-21T11:00:52.364Z,22.13
2018-10-21T11:03:26.726Z,21.10
2018-10-21T11:06:00.593Z,23.13
2018-10-21T11:08:29.554Z,21.73
2018-10-21T11:11:00.388Z,23.30
2018-10-21T11:13:30.549Z,23.67
2018-10-21T11:16:00.864Z,24.23
2018-10-21T11:18:29.763Z,24.97
2018-10-21T11:21:00.255Z,23.53
2018-10-21T11:23:29.348Z,22.80
2018-10-21T11:25:59.542Z,22.10
2018-10-21T11:28:28.771Z,22.23
2018-10-21T11:30:58.718Z,23.37
2018-10-21T11:33:28.048Z,22.77
2018-10-21T11:35:57.583Z,22.50
2018-10-21T11:38:27.046Z,22.23
2018-10-21T11:40:59.617Z,24.73
2018-10-21T11:43:29.158Z,22.77
2018-10-21T11:45:59.875Z,22.27
2018-10-21T11:49:58.194Z,22.33
2018-10-21T11:52:32.958Z,21.80
2018-10-21T11:55:02.715Z,21.70
2018-10-21T11:57:33.744Z,22.27
2018-10-21T12:00:06.754Z,21.83
2018-10-21T12:04:05.536Z,21.93
2018-10-21T12:06:36.960Z,23.77
2018-10-21T12:09:10.617Z,23.00
2018-10-21T12:11:39.713Z,21.03
2018-10-21T12:14:09.103Z,22.47
2018-10-21T12:16:38.939Z,23.87
2018-10-21T12:19:13.973Z,23.47
2018-10-21T12:21:42.951Z,22.20
2018-10-21T12:24:12.327Z,23.27
2018-10-21T12:26:44.185Z,21.33
2018-10-21T12:29:15.082Z,21.10
2018-10-21T12:31:44.050Z,22.10
2018-10-21T12:34:13.346Z,22.83
2018-10-21T12:36:43.771Z,20.57
2018-10-21T12:39:19.496Z,19.40
2018-10-21T12:41:48.840Z,21.00
2018-10-21T12:44:17.903Z,23.37
2018-10-21T12:46:46.572Z,23.10
2018-10-21T12:49:20.175Z,20.70
2018-10-21T12:51:49.114Z,20.83
2018-10-21T12:54:24.824Z,22.00
2018-10-21T12:56:53.756Z,22.37
2018-10-21T12:59:23.111Z,22.43
2018-10-21T13:01:56.162Z,22.17
2018-10-21T13:04:29.071Z,22.17
2018-10-21T13:07:00.043Z,22.50
2018-10-21T13:09:29.040Z,23.40
2018-10-21T13:11:58.063Z,23.43
2018-10-21T13:14:31.906Z,23.13
2018-10-21T13:17:01.820Z,22.23
2018-10-21T13:19:34.110Z,23.20
2018-10-21T13:22:04.448Z,21.43
2018-10-21T13:24:35.931Z,22.63
2018-10-21T13:27:08.302Z,20.87
2018-10-21T13:29:37.474Z,21.37
2018-10-21T13:32:08.482Z,23.40
2018-10-21T13:34:37.369Z,20.37
2018-10-21T13:37:08.962Z,21.27
2018-10-21T13:39:38.526Z,17.90
2018-10-21T13:42:07.725Z,21.10
2018-10-21T13:44:37.263Z,21.10
2018-10-21T13:47:06.058Z,23.03
2018-10-21T13:49:35.924Z,22.43
2018-10-21T13:52:05.538Z,21.60
2018-10-21T13:54:35.825Z,22.00
2018-10-21T13:57:05.837Z,20.13
2018-10-21T13:59:37.035Z,22.13
2018-10-21T14:02:07.808Z,21.53
2018-10-21T14:04:37.517Z,20.27
2018-10-21T14:07:06.966Z,21.53
2018-10-21T14:09:43.532Z,21.73
2018-10-21T14:12:12.739Z,19.03
2018-10-21T14:14:44.022Z,17.67
2018-10-21T14:17:16.181Z,22.50
2018-10-21T14:19:48.136Z,21.30
2018-10-21T14:22:17.884Z,21.37
2018-10-21T14:24:47.365Z,21.33
2018-10-21T14:27:16.177Z,20.60
2018-10-21T14:29:45.451Z,19.33
2018-10-21T14:32:14.033Z,19.83
2018-10-21T14:34:42.565Z,21.20
2018-10-21T14:37:15.413Z,21.70
2018-10-21T14:39:44.252Z,21.47
2018-10-21T14:49:01.271Z,20.50
2018-10-21T14:51:36.879Z,21.30
2018-10-21T14:54:10.292Z,21.60
2018-10-21T14:56:44.267Z,20.80
2018-10-21T14:59:15.320Z,21.63
2018-10-21T15:01:46.648Z,20.63
2018-10-21T15:04:18.558Z,17.47
2018-10-21T15:06:49.546Z,20.27
2018-10-21T15:09:21.421Z,20.53
2018-10-21T15:11:53.565Z,19.97
2018-10-21T15:14:25.986Z,20.80
2018-10-21T15:16:55.693Z,20.27
2018-10-21T15:19:28.270Z,21.70
2018-10-21T15:21:56.848Z,21.60
2018-10-21T15:24:29.563Z,20.33
2018-10-21T15:27:01.790Z,19.30
2018-10-21T15:29:33.813Z,18.90
2018-10-21T15:32:06.516Z,17.63
2018-10-21T15:34:38.809Z,18.73
2018-10-21T15:37:11.002Z,17.53
2018-10-21T15:39:44.550Z,20.27
2018-10-21T15:42:16.238Z,20.63
2018-10-21T15:44:49.158Z,19.17
2018-10-21T15:47:21.219Z,20.13
2018-10-21T15:49:54.965Z,19.50
2018-10-21T15:52:27.577Z,18.47
2018-10-21T15:55:01.523Z,20.80
2018-10-21T15:57:34.521Z,17.87
2018-10-21T16:00:07.125Z,19.87
2018-10-21T16:02:37.769Z,18.20
2018-10-21T16:05:15.902Z,15.70
2018-10-21T16:07:48.744Z,14.50
2018-10-21T16:10:20.297Z,19.40
2018-10-21T16:12:55.207Z,17.70
2018-10-21T16:15:26.769Z,19.97
2018-10-21T16:18:00.699Z,20.00
2018-10-21T16:20:32.960Z,18.27
2018-10-21T16:23:06.233Z,18.40
2018-10-21T16:25:38.607Z,17.93
2018-10-21T16:28:11.869Z,19.17
2018-10-21T16:30:54.038Z,20.87
2018-10-21T16:33:25.028Z,18.67
2018-10-21T16:35:54.709Z,20.10
2018-10-21T16:38:27.727Z,20.83
2018-10-21T16:40:59.815Z,19.87
2018-10-21T16:43:31.116Z,19.07
2018-10-21T16:46:06.993Z,20.13
2018-10-21T16:48:40.837Z,18.53
2018-10-21T16:51:14.222Z,17.50
2018-10-21T16:53:46.426Z,19.73
2018-10-21T16:56:15.098Z,19.00
2018-10-21T16:58:46.883Z,18.10
2018-10-21T17:01:20.743Z,17.03
2018-10-21T17:03:50.984Z,22.60
2018-10-21T17:06:21.104Z,21.00
2018-10-21T17:08:50.776Z,20.27
2018-10-21T17:11:19.673Z,21.10
2018-10-21T17:13:48.613Z,20.27
2018-10-21T17:16:17.458Z,21.47
2018-10-21T17:18:46.180Z,19.70
2018-10-21T17:21:15.108Z,21.83
2018-10-21T17:23:44.057Z,19.00
2018-10-21T17:26:12.993Z,20.20
2018-10-21T17:28:41.805Z,19.43
2018-10-21T17:31:11.273Z,21.13
2018-10-21T17:33:40.160Z,19.70
2018-10-21T17:36:09.200Z,20.83
2018-10-21T17:38:38.321Z,21.10
2018-10-21T17:41:07.267Z,21.37
2018-10-21T17:43:36.430Z,22.67
2018-10-21T17:46:05.863Z,22.63
2018-10-21T17:48:35.018Z,21.03
2018-10-21T17:51:04.249Z,21.03
2018-10-21T17:53:33.384Z,19.63
2018-10-21T17:56:02.392Z,21.77
2018-10-21T17:58:31.733Z,20.90
2018-10-21T18:02:30.241Z,21.13
2018-10-21T18:04:59.436Z,22.80
2018-10-21T18:07:35.261Z,23.62
2018-10-21T18:10:04.020Z,22.23
2018-10-21T18:12:35.888Z,20.50
2018-10-21T18:15:09.079Z,21.63
2018-10-21T18:17:38.847Z,22.23
2018-10-21T18:20:12.493Z,22.27
2018-10-21T18:22:41.378Z,21.93
2018-10-21T18:25:11.017Z,22.93
2018-10-21T18:27:41.255Z,19.17
2018-10-21T18:30:11.268Z,22.50
2018-10-21T18:32:41.816Z,21.90
2018-10-21T18:35:12.834Z,22.23
2018-10-21T18:37:43.910Z,23.13
2018-10-21T18:40:13.501Z,23.50
2018-10-21T18:42:42.731Z,20.40
2018-10-21T18:45:16.055Z,22.60
2018-10-21T18:47:45.154Z,22.97
2018-10-21T18:50:14.991Z,24.20
2018-10-21T18:52:44.118Z,24.10
2018-10-21T18:55:13.554Z,23.70
2018-10-21T18:57:42.734Z,23.10
2018-10-21T19:00:14.429Z,23.30
2018-10-21T19:02:43.578Z,24.83
2018-10-21T19:05:13.404Z,25.33
2018-10-21T19:07:54.211Z,24.23
2018-10-21T19:10:36.550Z,23.23
2018-10-21T19:13:17.873Z,22.73
2018-10-21T19:15:47.023Z,22.27
2018-10-21T19:18:16.064Z,23.50
2018-10-21T19:20:44.872Z,23.73
2018-10-21T19:23:15.582Z,23.33
2018-10-21T19:25:44.634Z,23.50
2018-10-21T19:28:13.555Z,23.10
2018-10-21T19:30:42.528Z,24.27
2018-10-21T19:33:11.561Z,26.03
2018-10-21T19:35:40.341Z,27.13
2018-10-21T19:38:09.348Z,28.23
2018-10-21T19:40:38.338Z,28.97
2018-10-21T19:43:07.524Z,25.80
2018-10-21T19:45:37.051Z,28.90
2018-10-21T19:48:06.297Z,28.07
2018-10-21T19:50:35.534Z,31.50
2018-10-21T19:53:04.622Z,26.70
2018-10-21T19:55:34.402Z,30.60
2018-10-21T19:58:03.527Z,30.23
2018-10-21T20:00:32.642Z,30.23
2018-10-21T20:03:02.012Z,28.80
2018-10-21T20:05:31.137Z,28.60
2018-10-21T20:08:00.037Z,26.07
2018-10-21T20:10:30.073Z,28.47
2018-10-21T20:12:59.193Z,24.47
2018-10-21T20:15:28.133Z,28.60
2018-10-21T20:17:57.256Z,28.17
2018-10-21T20:20:27.393Z,26.70
2018-10-21T20:22:56.273Z,26.40
2018-10-21T20:25:25.383Z,25.97
2018-10-21T20:27:54.062Z,23.33
2018-10-21T20:30:22.644Z,27.63
2018-10-21T20:32:52.262Z,25.97
2018-10-21T20:35:21.437Z,27.60
2018-10-21T20:37:50.177Z,27.67
2018-10-21T20:40:19.504Z,27.00
2018-10-21T20:42:48.641Z,27.00
2018-10-21T20:45:17.660Z,30.00
2018-10-21T20:47:46.695Z,28.23
2018-10-21T20:50:15.819Z,30.33
2018-10-21T20:52:44.371Z,29.97
2018-10-21T20:55:13.476Z,33.23
2018-10-21T20:57:44.662Z,32.47
2018-10-21T21:00:13.663Z,30.33
2018-10-21T21:02:42.757Z,29.93
2018-10-21T21:05:11.748Z,32.00
2018-10-21T21:07:42.244Z,31.07
2018-10-21T21:10:11.263Z,32.30
2018-10-21T21:12:40.922Z,32.97
2018-10-21T21:15:09.607Z,31.03
2018-10-21T21:17:38.805Z,30.27
2018-10-21T21:20:08.619Z,32.77
2018-10-21T21:22:37.607Z,34.23
2018-10-21T21:25:06.295Z,34.40
2018-10-21T21:27:34.956Z,32.87
2018-10-21T21:30:03.613Z,33.70
2018-10-21T21:32:32.158Z,35.73
2018-10-21T21:35:00.704Z,35.53
2018-10-21T21:37:29.457Z,34.57
2018-10-21T21:39:58.061Z,34.00
2018-10-21T21:42:26.530Z,33.43
2018-10-21T21:44:55.432Z,30.87
2018-10-21T21:47:24.213Z,32.50
2018-10-21T21:49:52.756Z,31.17
2018-10-21T21:52:21.285Z,32.03
2018-10-21T21:54:49.850Z,32.10
2018-10-21T21:57:18.381Z,33.13
2018-10-21T21:59:46.973Z,31.10
2018-10-21T22:02:15.582Z,32.97
2018-10-21T22:04:44.142Z,34.07
2018-10-21T22:07:12.761Z,34.50
2018-10-21T22:09:41.342Z,35.93
2018-10-21T22:12:10.495Z,35.07
2018-10-21T22:14:39.346Z,35.23
2018-10-21T22:17:10.013Z,36.27
2018-10-21T22:19:38.603Z,34.90
2018-10-21T22:22:07.224Z,33.83
2018-10-21T22:24:35.700Z,33.60
2018-10-21T22:27:04.716Z,34.93
2018-10-21T22:29:33.495Z,34.57
2018-10-21T22:32:02.039Z,30.33
2018-10-21T22:34:30.870Z,33.83
2018-10-21T22:37:00.497Z,34.20
2018-10-21T22:39:29.126Z,36.27
2018-10-21T22:41:57.698Z,36.90
2018-10-21T22:44:26.217Z,34.37
2018-10-21T22:46:54.789Z,32.93
2018-10-21T22:49:23.350Z,34.00
2018-10-21T22:51:51.853Z,31.63
2018-10-21T22:54:20.418Z,34.87
2018-10-21T22:56:48.918Z,34.07
2018-10-21T22:59:17.422Z,36.23
2018-10-21T23:01:45.947Z,36.47
2018-10-21T23:04:14.660Z,34.93
2018-10-21T23:06:43.105Z,35.80
2018-10-21T23:09:12.481Z,37.47
2018-10-21T23:11:41.598Z,38.07
2018-10-21T23:14:10.550Z,37.23
2018-10-21T23:16:39.246Z,36.57
2018-10-21T23:19:18.822Z,37.13
2018-10-21T23:21:47.727Z,37.03
2018-10-21T23:24:16.337Z,37.63
2018-10-21T23:26:44.786Z,37.80
2018-10-21T23:29:13.285Z,37.83
2018-10-21T23:31:41.840Z,40.57
2018-10-21T23:34:10.451Z,39.53
2018-10-21T23:36:38.926Z,36.57
2018-10-21T23:39:07.432Z,37.53
2018-10-21T23:41:36.141Z,34.30
2018-10-21T23:44:04.880Z,35.80
2018-10-21T23:46:34.093Z,36.37
2018-10-21T23:49:03.427Z,38.33
2018-10-21T23:51:33.606Z,39.73
2018-10-21T23:54:03.040Z,39.60
2018-10-21T23:56:31.502Z,40.23
2018-10-21T23:58:59.996Z,37.30
